createdAt,value
2022-11-18T00:06:34.056Z,98792.88
2022-11-18T00:16:35.643Z,98770.28
2022-11-18T00:26:44.593Z,98784.06
2022-11-18T00:36:48.764Z,98770.63
2022-11-18T00:46:53.519Z,98742.66
2022-11-18T00:56:57.207Z,98737.59
2022-11-18T01:07:01.026Z,98755.66
2022-11-18T01:17:02.848Z,98728.38
2022-11-18T01:27:05.829Z,98731.81
2022-11-18T01:37:07.575Z,98724.13
2022-11-18T01:47:10.409Z,98739.63
2022-11-18T01:57:17.295Z,98720.97
2022-11-18T02:07:19.929Z,98732.00
2022-11-18T02:17:37.465Z,98745.75
2022-11-18T02:27:43.534Z,98738.44
2022-11-18T02:37:52.401Z,98722.88
2022-11-18T02:47:56.688Z,98703.84
2022-11-18T02:58:03.615Z,98687.63
2022-11-18T03:08:15.271Z,98684.88
2022-11-18T03:18:29.437Z,98681.59
2022-11-18T03:28:41.953Z,98690.88
2022-11-18T03:38:51.477Z,98695.88
2022-11-18T03:48:56.589Z,98701.91
2022-11-18T03:59:12.035Z,98704.31
2022-11-18T04:09:45.544Z,98701.72
2022-11-18T04:19:47.845Z,98660.03
2022-11-18T04:29:51.466Z,98654.91
2022-11-18T04:39:53.035Z,98643.59
2022-11-18T04:49:54.693Z,98648.59
2022-11-18T04:59:56.376Z,98672.44
2022-11-18T05:09:59.306Z,98661.56
2022-11-18T05:20:09.528Z,98651.03
2022-11-18T05:30:14.878Z,98651.97
2022-11-18T05:40:16.869Z,98635.88
2022-11-18T05:50:21.235Z,98635.00
2022-11-18T06:00:23.522Z,98652.16
2022-11-18T06:10:32.239Z,98661.63
2022-11-18T06:20:36.367Z,98655.59
2022-11-18T06:30:45.536Z,98646.94
2022-11-18T06:40:49.209Z,98639.84
2022-11-18T06:50:50.903Z,98648.34
2022-11-18T07:00:55.825Z,98651.09
2022-11-18T07:10:59.551Z,98646.75
2022-11-18T07:21:21.536Z,98652.72
2022-11-18T07:31:23.224Z,98627.41
2022-11-18T07:41:33.673Z,98619.56
2022-11-18T07:51:42.273Z,98600.59
2022-11-18T08:01:44.770Z,98566.50
2022-11-18T08:11:51.566Z,98601.25
2022-11-18T08:21:53.357Z,98612.09
2022-11-18T08:31:55.080Z,98616.38
2022-11-18T08:41:59.538Z,98588.53
2022-11-18T08:52:01.206Z,98573.84
2022-11-18T09:02:03.957Z,98556.00
2022-11-18T09:12:05.960Z,98550.34
2022-11-18T09:22:15.044Z,98565.88
2022-11-18T09:32:16.788Z,98548.28
2022-11-18T09:42:38.853Z,98540.16
2022-11-18T09:52:55.663Z,98542.63
2022-11-18T10:03:16.225Z,98527.50
2022-11-18T10:13:47.449Z,98496.84
2022-11-18T10:23:59.382Z,98487.28
2022-11-18T10:34:05.295Z,98476.81
2022-11-18T10:44:30.592Z,98459.75
2022-11-18T10:54:33.759Z,98458.75
2022-11-18T11:04:37.277Z,98459.38
2022-11-18T11:14:48.371Z,98468.19
2022-11-18T11:24:50.183Z,98481.97
2022-11-18T11:35:17.119Z,98479.38
2022-11-18T11:45:28.861Z,98478.63
2022-11-18T11:56:11.091Z,98479.19
2022-11-18T12:06:14.389Z,98468.31
2022-11-18T12:17:01.447Z,98463.09
2022-11-18T12:27:11.827Z,98440.19
2022-11-18T12:37:26.043Z,98437.78
2022-11-18T12:47:40.830Z,98431.22
2022-11-18T12:57:43.999Z,98429.28
2022-11-18T13:08:13.314Z,98432.41
2022-11-18T13:18:20.672Z,98452.03
2022-11-18T13:28:45.240Z,98474.53
2022-11-18T13:39:00.926Z,98484.38
2022-11-18T13:49:03.716Z,98488.84
2022-11-18T13:59:21.854Z,98488.22
2022-11-18T14:09:31.334Z,98478.69
2022-11-18T14:19:33.936Z,98469.28
2022-11-18T14:29:35.560Z,98479.50
2022-11-18T14:39:38.044Z,98487.97
2022-11-18T14:49:40.101Z,98481.81
2022-11-18T14:59:53.683Z,98475.75
2022-11-18T15:09:58.615Z,98481.16
2022-11-18T15:20:07.061Z,98473.56
2022-11-18T15:30:12.586Z,98478.78
2022-11-18T15:40:15.268Z,98493.31
2022-11-18T15:50:17.377Z,98486.56
2022-11-18T16:00:22.574Z,98491.50
2022-11-18T16:10:42.874Z,98493.16
2022-11-18T16:20:44.655Z,98510.13
2022-11-18T16:31:09.956Z,98503.16
2022-11-18T16:41:31.985Z,98508.47
2022-11-18T16:51:35.423Z,98518.56
2022-11-18T17:01:43.280Z,98520.88
2022-11-18T17:11:45.125Z,98523.31
2022-11-18T17:21:48.458Z,98528.63
2022-11-18T17:31:55.102Z,98552.66
2022-11-18T17:42:17.773Z,98547.56
2022-11-18T17:53:25.349Z,98568.81
2022-11-18T18:03:33.272Z,98562.09
2022-11-18T18:13:56.096Z,98552.59
2022-11-18T18:23:59.359Z,98586.69
2022-11-18T18:34:03.666Z,98608.16
2022-11-18T18:44:05.664Z,98596.91
2022-11-18T18:54:17.038Z,98605.16
2022-11-18T19:04:19.798Z,98624.91
2022-11-18T19:14:26.585Z,98645.53
2022-11-18T19:24:48.625Z,98650.13
2022-11-18T19:34:51.892Z,98671.50
2022-11-18T19:44:53.834Z,98678.44
2022-11-18T19:55:00.856Z,98698.81
2022-11-18T20:05:25.130Z,98728.16
2022-11-18T20:15:27.321Z,98748.78
2022-11-18T20:25:29.663Z,98761.81
2022-11-18T20:35:35.794Z,98754.47
2022-11-18T20:45:38.581Z,98797.25
2022-11-18T20:55:43.098Z,98808.66
2022-11-18T21:05:45.013Z,98841.22
2022-11-18T21:15:54.878Z,98873.63
2022-11-18T21:26:01.897Z,98886.75
2022-11-18T21:36:03.605Z,98907.31
2022-11-18T21:46:08.569Z,98929.69
2022-11-18T21:56:16.314Z,98958.88
2022-11-18T22:06:20.483Z,98953.81
2022-11-18T22:16:25.503Z,98973.44
2022-11-18T22:26:28.969Z,98980.28
2022-11-18T22:36:32.244Z,99001.59
2022-11-18T22:46:41.086Z,99007.56
2022-11-18T22:56:43.848Z,99027.97
2022-11-18T23:06:45.513Z,99042.47
2022-11-18T23:16:57.726Z,99053.53
2022-11-18T23:26:59.342Z,99024.53
2022-11-18T23:37:01.455Z,99045.81
2022-11-18T23:47:05.431Z,99072.16
2022-11-18T23:57:07.406Z,99090.84
